KHFD/HFD METAR and TAF weather

Enter ICAO airport designator
Station Type Date Time Source
KHFD METAR 2022/08/16 18:53 UTC NOAA

KHFD 161853Z 05011G23KT 10SM FEW080 SCT110 30/10 A2999 RMK AO2 SLP156 T03000100


Station Type Date Time Source
KHFD Decoded METAR 2022/08/16 18:53 UTC NOAA

HARTFORD-BRAINARD AIRPORT, CT, United States (KHFD) 41-44N 072-39W 4M
Aug 16, 2022 - 02:53 PM EDT / 2022.08.16 1853 UTC
Wind: from the NE (050 degrees) at 13 MPH (11 KT) gusting to 26 MPH (23 KT):0
Visibility: 10 mile(s):0
Sky conditions: partly cloudy
Temperature: 86.0 F (30.0 C)
Dew Point: 50.0 F (10.0 C)
Relative Humidity: 28%
Pressure (altimeter): 29.99 in. Hg (1015 hPa)
ob: KHFD 161853Z 05011G23KT 10SM FEW080 SCT110 30/10 A2999 RMK AO2 SLP156 T03000100
cycle: 19

Station Type Date Time Source
KHFD TAF UTC NOAA

Error!

Example: see airport list